createdAt,value
2018-08-12T00:02:16.321Z,2.10
2018-08-12T00:04:44.920Z,1.90
2018-08-12T00:07:13.608Z,1.77
2018-08-12T00:09:41.989Z,2.20
2018-08-12T00:12:10.759Z,1.90
2018-08-12T00:14:39.470Z,2.07
2018-08-12T00:17:08.280Z,1.97
2018-08-12T00:19:36.862Z,1.90
2018-08-12T00:22:05.639Z,2.00
2018-08-12T00:24:34.152Z,1.90
2018-08-12T00:27:02.943Z,1.90
2018-08-12T00:29:31.826Z,1.73
2018-08-12T00:32:00.678Z,2.00
2018-08-12T00:34:29.376Z,1.93
2018-08-12T00:36:58.201Z,2.07
2018-08-12T00:39:26.556Z,2.20
2018-08-12T00:41:54.958Z,2.10
2018-08-12T00:44:23.707Z,1.97
2018-08-12T00:46:52.467Z,1.73
2018-08-12T00:49:20.940Z,1.87
2018-08-12T00:51:49.581Z,1.90
2018-08-12T00:54:18.051Z,1.50
2018-08-12T00:56:46.517Z,1.80
2018-08-12T00:59:14.963Z,2.00
2018-08-12T01:01:43.585Z,1.73
2018-08-12T01:04:12.422Z,2.10
2018-08-12T01:06:41.335Z,1.60
2018-08-12T01:09:11.808Z,1.83
2018-08-12T01:11:40.350Z,2.00
2018-08-12T01:14:09.525Z,1.87
2018-08-12T01:16:38.016Z,2.00
2018-08-12T01:19:06.538Z,1.93
2018-08-12T01:21:35.105Z,1.70
2018-08-12T01:24:03.697Z,2.07
2018-08-12T01:26:32.477Z,2.00
2018-08-12T01:29:01.031Z,2.10
2018-08-12T01:31:29.363Z,1.90
2018-08-12T01:33:58.107Z,1.70
2018-08-12T01:36:26.602Z,1.83
2018-08-12T01:38:55.044Z,1.87
2018-08-12T01:41:23.496Z,1.87
2018-08-12T01:43:51.923Z,1.80
2018-08-12T01:46:20.754Z,1.90
2018-08-12T01:48:49.750Z,1.90
2018-08-12T01:51:18.167Z,1.93
2018-08-12T01:53:46.612Z,1.97
2018-08-12T01:56:14.927Z,2.07
2018-08-12T01:58:43.295Z,1.70
2018-08-12T02:01:11.710Z,1.90
2018-08-12T02:03:40.414Z,1.90
2018-08-12T02:06:09.648Z,2.00
2018-08-12T02:08:38.115Z,1.87
2018-08-12T02:11:06.723Z,1.83
2018-08-12T02:13:35.143Z,2.07
2018-08-12T02:16:03.967Z,2.00
2018-08-12T02:18:32.694Z,1.97
2018-08-12T02:21:01.230Z,1.90
2018-08-12T02:23:29.683Z,2.00
2018-08-12T02:25:58.389Z,2.00
2018-08-12T02:28:26.971Z,2.03
2018-08-12T02:30:55.352Z,1.77
2018-08-12T02:33:23.947Z,2.00
2018-08-12T02:35:52.332Z,2.03
2018-08-12T02:38:20.711Z,1.73
2018-08-12T02:40:49.625Z,1.93
2018-08-12T02:43:18.260Z,1.80
2018-08-12T02:45:46.837Z,1.80
2018-08-12T02:48:15.402Z,1.90
2018-08-12T02:50:44.390Z,1.90
2018-08-12T02:53:13.127Z,1.90
2018-08-12T02:55:45.331Z,2.00
2018-08-12T02:58:14.160Z,1.93
2018-08-12T03:00:42.916Z,1.83
2018-08-12T03:03:11.564Z,1.97
2018-08-12T03:05:40.653Z,2.17
2018-08-12T03:08:09.293Z,1.80
2018-08-12T03:10:37.629Z,2.00
2018-08-12T03:13:06.546Z,1.90
2018-08-12T03:15:35.484Z,1.90
2018-08-12T03:18:04.341Z,1.77
2018-08-12T03:20:33.037Z,2.23
2018-08-12T03:23:01.800Z,2.03
2018-08-12T03:25:30.444Z,2.00
2018-08-12T03:27:58.887Z,2.10
2018-08-12T03:30:27.455Z,2.17
2018-08-12T03:32:55.936Z,2.10
2018-08-12T03:35:24.368Z,2.00
2018-08-12T03:37:53.076Z,2.13
2018-08-12T03:40:21.420Z,2.10
2018-08-12T03:42:50.073Z,2.20
2018-08-12T03:45:18.536Z,2.10
2018-08-12T03:47:47.196Z,1.93
2018-08-12T03:50:15.891Z,2.20
2018-08-12T03:52:44.736Z,2.20
2018-08-12T03:55:13.191Z,2.10
2018-08-12T03:57:41.700Z,2.00
2018-08-12T04:00:14.249Z,2.17
2018-08-12T04:02:43.068Z,2.03
2018-08-12T04:05:11.808Z,2.20
2018-08-12T04:07:40.601Z,2.07
2018-08-12T04:10:09.538Z,2.00
2018-08-12T04:12:38.075Z,2.00
2018-08-12T04:15:07.559Z,2.13
2018-08-12T04:17:35.891Z,2.40
2018-08-12T04:20:05.323Z,2.80
2018-08-12T04:22:33.721Z,2.23
2018-08-12T04:25:02.128Z,2.27
2018-08-12T04:27:30.735Z,2.20
2018-08-12T04:29:59.823Z,2.20
2018-08-12T04:32:28.582Z,2.10
2018-08-12T04:34:57.345Z,2.63
2018-08-12T04:37:25.673Z,2.60
2018-08-12T04:39:55.617Z,2.67
2018-08-12T04:42:24.119Z,2.13
2018-08-12T04:44:52.779Z,2.30
2018-08-12T04:47:21.084Z,2.40
2018-08-12T04:49:49.610Z,2.00
2018-08-12T04:52:18.417Z,2.07
2018-08-12T04:54:46.886Z,2.00
2018-08-12T04:57:15.393Z,2.50
2018-08-12T04:59:43.764Z,2.20
2018-08-12T05:02:12.221Z,2.30
2018-08-12T05:04:40.914Z,2.40
2018-08-12T05:07:09.638Z,2.17
2018-08-12T05:09:38.415Z,2.37
2018-08-12T05:12:06.901Z,2.20
2018-08-12T05:14:43.884Z,2.20
2018-08-12T05:17:12.185Z,2.20
2018-08-12T05:19:40.480Z,2.37
2018-08-12T05:22:09.352Z,2.00
2018-08-12T05:24:37.828Z,2.10
2018-08-12T05:27:06.910Z,2.40
2018-08-12T05:29:35.355Z,2.10
2018-08-12T05:32:04.268Z,2.20
2018-08-12T05:34:32.979Z,2.27
2018-08-12T05:37:01.365Z,2.47
2018-08-12T05:39:29.971Z,2.40
2018-08-12T05:41:58.698Z,2.20
2018-08-12T05:44:27.119Z,2.27
2018-08-12T05:46:55.820Z,2.10
2018-08-12T05:49:24.393Z,2.23
2018-08-12T05:51:52.859Z,2.50
2018-08-12T05:54:21.504Z,2.20
2018-08-12T05:56:50.023Z,2.20
2018-08-12T05:59:18.466Z,2.40
2018-08-12T06:01:47.122Z,2.20
2018-08-12T06:04:15.820Z,2.47
2018-08-12T06:06:44.200Z,2.03
2018-08-12T06:09:12.939Z,2.70
2018-08-12T06:11:41.784Z,2.60
2018-08-12T06:14:10.432Z,2.30
2018-08-12T06:16:39.186Z,2.27
2018-08-12T06:19:07.589Z,2.23
2018-08-12T06:21:35.904Z,2.30
2018-08-12T06:24:04.827Z,2.50
2018-08-12T06:26:33.670Z,2.37
2018-08-12T06:29:02.384Z,2.30
2018-08-12T06:31:30.965Z,2.30
2018-08-12T06:33:59.758Z,2.50
2018-08-12T06:36:28.652Z,2.20
2018-08-12T06:38:57.132Z,2.20
2018-08-12T06:41:25.543Z,2.53
2018-08-12T06:43:54.185Z,2.37
2018-08-12T06:46:22.709Z,2.60
2018-08-12T06:48:51.243Z,2.33
2018-08-12T06:51:19.977Z,2.27
2018-08-12T06:53:48.856Z,2.67
2018-08-12T06:56:17.523Z,2.40
2018-08-12T06:58:46.155Z,2.47
2018-08-12T07:01:14.919Z,2.40
2018-08-12T07:03:43.725Z,2.57
2018-08-12T07:06:12.412Z,2.90
2018-08-12T07:08:40.778Z,2.60
2018-08-12T07:11:09.199Z,2.60
2018-08-12T07:13:37.744Z,2.37
2018-08-12T07:16:06.232Z,2.40
2018-08-12T07:18:34.811Z,2.37
2018-08-12T07:21:03.787Z,2.83
2018-08-12T07:23:32.313Z,2.30
2018-08-12T07:26:01.188Z,2.47
2018-08-12T07:28:29.615Z,3.13
2018-08-12T07:30:58.117Z,2.47
2018-08-12T07:33:26.604Z,2.60
2018-08-12T07:35:55.223Z,2.37
2018-08-12T07:38:23.775Z,2.20
2018-08-12T07:40:52.271Z,2.60
2018-08-12T07:43:20.790Z,2.30
2018-08-12T07:45:49.259Z,2.40
2018-08-12T07:48:17.616Z,2.50
2018-08-12T07:50:46.108Z,2.80
2018-08-12T07:53:14.548Z,2.90
2018-08-12T07:55:43.016Z,2.60
2018-08-12T07:58:11.422Z,3.00
2018-08-12T08:00:40.099Z,2.60
2018-08-12T08:03:08.548Z,2.50
2018-08-12T08:05:37.147Z,2.50
2018-08-12T08:08:05.737Z,2.63
2018-08-12T08:10:34.646Z,2.80
2018-08-12T08:13:03.187Z,2.30
2018-08-12T08:15:32.267Z,2.20
2018-08-12T08:18:00.672Z,1.83
2018-08-12T08:20:29.565Z,2.37
2018-08-12T08:22:58.178Z,2.47
2018-08-12T08:25:26.759Z,2.30
2018-08-12T08:27:55.204Z,2.40
2018-08-12T08:30:23.659Z,1.80
2018-08-12T08:32:52.197Z,2.23
2018-08-12T08:35:20.628Z,2.30
2018-08-12T08:37:49.469Z,2.33
2018-08-12T08:40:17.982Z,2.30
2018-08-12T08:42:46.833Z,2.30
2018-08-12T08:45:17.825Z,2.10
2018-08-12T08:47:47.604Z,2.13
2018-08-12T08:51:18.628Z,2.47
2018-08-12T08:53:47.068Z,2.27
2018-08-12T08:56:15.521Z,2.20
2018-08-12T08:58:44.343Z,2.33
2018-08-12T09:01:12.993Z,2.43
2018-08-12T09:03:41.753Z,2.30
2018-08-12T09:06:10.167Z,2.90
2018-08-12T09:08:39.218Z,2.60
2018-08-12T09:11:07.795Z,2.37
2018-08-12T09:13:36.568Z,2.70
2018-08-12T09:16:05.508Z,2.50
2018-08-12T09:18:34.080Z,2.40
2018-08-12T09:21:02.560Z,2.50
2018-08-12T09:23:31.055Z,2.50
2018-08-12T09:25:59.632Z,2.40
2018-08-12T09:28:27.959Z,2.60
2018-08-12T09:30:56.839Z,2.57
2018-08-12T09:33:25.300Z,2.63
2018-08-12T09:35:53.644Z,2.77
2018-08-12T09:38:21.967Z,2.37
2018-08-12T09:40:50.679Z,2.47
2018-08-12T09:43:19.137Z,2.67
2018-08-12T09:45:47.494Z,2.70
2018-08-12T09:48:15.910Z,2.90
2018-08-12T09:50:44.686Z,2.80
2018-08-12T09:53:13.208Z,3.13
2018-08-12T09:55:41.776Z,2.98
2018-08-12T09:58:10.428Z,3.20
2018-08-12T10:00:40.281Z,2.90
2018-08-12T10:03:09.684Z,2.87
2018-08-12T10:05:38.409Z,2.90
2018-08-12T10:08:07.065Z,2.87
2018-08-12T10:10:36.070Z,2.70
2018-08-12T10:13:04.815Z,2.75
2018-08-12T10:15:45.394Z,2.90
2018-08-12T10:18:13.957Z,2.60
2018-08-12T10:20:42.696Z,2.58
2018-08-12T10:23:11.140Z,2.97
2018-08-12T10:25:39.596Z,3.03
2018-08-12T10:28:08.306Z,3.15
2018-08-12T10:30:37.221Z,2.92
2018-08-12T10:33:06.448Z,2.92
2018-08-12T10:35:35.048Z,2.75
2018-08-12T10:38:04.020Z,2.90
2018-08-12T10:40:32.607Z,2.87
2018-08-12T10:43:01.017Z,2.70
2018-08-12T10:45:29.716Z,2.58
2018-08-12T10:47:58.178Z,2.50
2018-08-12T10:50:26.572Z,2.40
2018-08-12T10:52:58.050Z,2.98
2018-08-12T10:55:26.908Z,3.10
2018-08-12T10:57:55.342Z,2.55
2018-08-12T11:00:29.119Z,2.70
2018-08-12T11:02:57.584Z,2.70
2018-08-12T11:05:26.469Z,2.45
2018-08-12T11:07:57.705Z,2.47
2018-08-12T11:10:27.025Z,2.20
2018-08-12T11:12:55.641Z,2.37
2018-08-12T11:15:58.419Z,2.77
2018-08-12T11:18:26.841Z,2.90
2018-08-12T11:20:55.278Z,2.45
2018-08-12T11:23:23.739Z,2.50
2018-08-12T11:25:52.409Z,2.80
2018-08-12T11:28:21.250Z,2.52
2018-08-12T11:30:49.566Z,2.25
2018-08-12T11:33:18.432Z,2.33
2018-08-12T11:35:47.283Z,2.35
2018-08-12T11:38:15.792Z,2.77
2018-08-12T11:40:44.353Z,2.22
2018-08-12T11:43:12.979Z,2.20
2018-08-12T11:45:41.945Z,2.10
2018-08-12T11:48:10.603Z,2.22
2018-08-12T11:50:39.376Z,2.12
2018-08-12T11:53:08.087Z,2.30
2018-08-12T11:55:36.675Z,1.80
2018-08-12T11:58:11.967Z,1.87
2018-08-12T12:00:40.719Z,1.90
2018-08-12T12:03:09.602Z,1.92
2018-08-12T12:05:38.036Z,1.90
2018-08-12T12:08:07.095Z,2.12
2018-08-12T12:10:36.292Z,1.92
2018-08-12T12:13:05.361Z,2.08
2018-08-12T12:16:06.452Z,2.22
2018-08-12T12:18:35.051Z,2.00
2018-08-12T12:21:03.776Z,2.20
2018-08-12T12:23:32.231Z,2.12
2018-08-12T12:26:00.791Z,2.00
2018-08-12T12:28:29.540Z,2.20
2018-08-12T12:30:58.553Z,2.20
2018-08-12T12:33:26.988Z,2.10
2018-08-12T12:35:55.775Z,1.92
2018-08-12T12:38:24.648Z,1.90
2018-08-12T12:40:53.099Z,1.90
2018-08-12T12:43:21.893Z,2.40
2018-08-12T12:45:50.767Z,2.02
2018-08-12T12:48:19.337Z,1.98
2018-08-12T12:50:47.793Z,1.90
2018-08-12T12:53:16.348Z,1.80
2018-08-12T12:55:44.940Z,2.02
2018-08-12T12:58:13.263Z,2.15
2018-08-12T13:00:41.911Z,2.20
2018-08-12T13:03:10.403Z,2.00
2018-08-12T13:05:39.104Z,2.00
2018-08-12T13:08:08.007Z,2.50
2018-08-12T13:10:37.096Z,2.50
2018-08-12T13:13:06.098Z,2.47
2018-08-12T13:18:53.608Z,2.70
2018-08-12T13:21:22.280Z,2.70
2018-08-12T13:23:50.675Z,3.17
2018-08-12T13:26:19.270Z,2.77
2018-08-12T13:28:47.703Z,2.67
2018-08-12T13:31:16.104Z,2.80
2018-08-12T13:33:44.903Z,2.50
2018-08-12T13:36:13.609Z,2.80
2018-08-12T13:38:42.112Z,2.30
2018-08-12T13:41:10.479Z,2.70
2018-08-12T13:43:39.051Z,2.35
2018-08-12T13:46:07.533Z,2.30
2018-08-12T13:48:35.894Z,2.83
2018-08-12T13:51:04.742Z,2.50
2018-08-12T13:53:33.251Z,2.62
2018-08-12T13:56:01.747Z,2.60
2018-08-12T13:58:30.300Z,2.60
2018-08-12T14:00:59.151Z,2.58
2018-08-12T14:03:27.561Z,2.40
2018-08-12T14:05:56.007Z,2.67
2018-08-12T14:08:24.815Z,2.77
2018-08-12T14:10:53.243Z,2.30
2018-08-12T14:13:22.200Z,2.35
2018-08-12T14:16:37.166Z,2.37
2018-08-12T14:19:06.058Z,2.70
2018-08-12T14:21:35.436Z,2.35
2018-08-12T14:24:04.623Z,2.40
2018-08-12T14:26:32.889Z,2.60
2018-08-12T14:29:01.627Z,2.40
2018-08-12T14:31:30.152Z,2.27
2018-08-12T14:33:58.800Z,2.33
2018-08-12T14:36:27.224Z,2.20
2018-08-12T14:38:55.640Z,2.00
2018-08-12T14:41:24.429Z,2.58
2018-08-12T14:43:52.856Z,2.37
2018-08-12T14:46:21.536Z,2.30
2018-08-12T14:48:49.883Z,2.33
2018-08-12T14:51:18.908Z,2.58
2018-08-12T14:53:47.402Z,2.40
2018-08-12T14:56:16.084Z,2.27
2018-08-12T14:58:44.544Z,2.35
2018-08-12T15:01:12.991Z,2.30
2018-08-12T15:03:41.605Z,2.30
2018-08-12T15:06:10.063Z,2.10
2018-08-12T15:08:38.906Z,2.00
2018-08-12T15:11:07.427Z,1.80
2018-08-12T15:13:35.887Z,2.40
2018-08-12T15:16:47.228Z,2.42
2018-08-12T15:19:15.808Z,2.60
2018-08-12T15:21:44.638Z,2.00
2018-08-12T15:24:13.112Z,2.20
2018-08-12T15:26:41.635Z,2.10
2018-08-12T15:29:10.158Z,2.20
2018-08-12T15:31:38.633Z,2.40
2018-08-12T15:34:07.708Z,2.12
2018-08-12T15:36:36.328Z,2.12
2018-08-12T15:39:08.883Z,2.37
2018-08-12T15:41:37.820Z,2.27
2018-08-12T15:44:06.557Z,2.10
2018-08-12T15:46:35.194Z,2.30
2018-08-12T15:49:03.742Z,2.50
2018-08-12T15:51:32.207Z,2.55
2018-08-12T15:54:00.770Z,2.52
2018-08-12T15:56:29.504Z,2.40
2018-08-12T15:58:58.055Z,2.30
2018-08-12T16:01:26.727Z,2.30
2018-08-12T16:03:55.725Z,2.27
2018-08-12T16:06:24.619Z,2.70
2018-08-12T16:08:53.421Z,2.45
2018-08-12T16:11:29.512Z,2.30
2018-08-12T16:13:58.049Z,2.65
2018-08-12T16:16:58.852Z,2.50
2018-08-12T16:19:27.555Z,2.52
2018-08-12T16:21:56.368Z,2.77
2018-08-12T16:24:24.716Z,2.55
2018-08-12T16:26:53.132Z,3.12
2018-08-12T16:29:21.640Z,2.83
2018-08-12T16:31:50.194Z,2.75
2018-08-12T16:34:18.954Z,3.00
2018-08-12T16:36:47.608Z,2.92
2018-08-12T16:39:16.024Z,2.70
2018-08-12T16:41:44.981Z,2.80
2018-08-12T16:44:13.742Z,2.37
2018-08-12T16:46:42.394Z,2.87
2018-08-12T16:49:11.307Z,2.42
2018-08-12T16:51:39.756Z,2.67
2018-08-12T16:54:08.206Z,2.90
2018-08-12T16:56:37.007Z,2.62
2018-08-12T16:59:05.969Z,2.85
2018-08-12T17:01:34.424Z,2.90
2018-08-12T17:04:03.269Z,2.67
2018-08-12T17:06:31.736Z,2.90
2018-08-12T17:09:00.513Z,2.83
2018-08-12T17:11:32.176Z,2.77
2018-08-12T17:14:00.867Z,2.87
2018-08-12T17:16:47.753Z,2.98
2018-08-12T17:19:16.559Z,2.62
2018-08-12T17:21:44.936Z,2.90
2018-08-12T17:24:13.240Z,3.22
2018-08-12T17:26:41.992Z,2.67
2018-08-12T17:29:10.511Z,3.00
2018-08-12T17:31:39.402Z,3.05
2018-08-12T17:34:07.783Z,2.75
2018-08-12T17:36:36.524Z,3.00
2018-08-12T17:39:07.875Z,2.90
2018-08-12T17:41:36.427Z,3.10
2018-08-12T17:44:05.200Z,3.00
2018-08-12T17:46:34.008Z,3.02
2018-08-12T17:49:02.528Z,3.05
2018-08-12T17:51:31.119Z,2.90
2018-08-12T17:54:00.349Z,2.70
2018-08-12T17:56:29.436Z,2.80
2018-08-12T17:58:58.609Z,2.47
2018-08-12T18:01:27.304Z,2.45
2018-08-12T18:03:56.047Z,2.60
2018-08-12T18:06:24.959Z,2.70
2018-08-12T18:08:53.660Z,2.50
2018-08-12T18:11:29.018Z,2.87
2018-08-12T18:13:57.634Z,2.72
2018-08-12T18:17:14.007Z,2.75
2018-08-12T18:19:42.558Z,2.75
2018-08-12T18:22:11.179Z,2.80
2018-08-12T18:24:39.763Z,2.70
2018-08-12T18:27:08.533Z,2.70
2018-08-12T18:29:37.210Z,2.80
2018-08-12T18:32:05.783Z,2.87
2018-08-12T18:34:34.179Z,2.87
2018-08-12T18:37:03.166Z,2.90
2018-08-12T18:39:31.849Z,2.80
2018-08-12T18:42:00.332Z,2.83
2018-08-12T18:44:29.794Z,2.42
2018-08-12T18:46:59.150Z,2.77
2018-08-12T18:49:29.116Z,2.62
2018-08-12T18:51:58.008Z,2.50
2018-08-12T18:54:27.514Z,2.70
2018-08-12T18:56:57.180Z,3.25
2018-08-12T18:59:26.881Z,2.70
2018-08-12T19:01:56.844Z,2.87
2018-08-12T19:04:26.125Z,2.87
2018-08-12T19:06:55.348Z,2.70
2018-08-12T19:09:24.468Z,2.85
2018-08-12T19:11:54.012Z,2.60
2018-08-12T19:14:39.825Z,2.90
2018-08-12T19:17:29.530Z,2.90
2018-08-12T19:19:59.952Z,2.83
2018-08-12T19:22:29.084Z,2.75
2018-08-12T19:25:00.292Z,2.80
2018-08-12T19:27:29.455Z,2.60
2018-08-12T19:30:00.207Z,2.80
2018-08-12T19:32:29.987Z,2.90
2018-08-12T19:35:01.180Z,2.83
2018-08-12T19:37:30.412Z,2.92
2018-08-12T19:40:01.144Z,2.87
2018-08-12T19:42:31.124Z,2.60
2018-08-12T19:45:01.795Z,2.83
2018-08-12T19:47:30.971Z,2.83
2018-08-12T19:50:01.915Z,2.90
2018-08-12T19:52:31.235Z,3.00
2018-08-12T19:55:02.347Z,3.20
2018-08-12T19:57:32.385Z,3.00
2018-08-12T20:00:02.074Z,3.20
2018-08-12T20:02:31.307Z,3.10
2018-08-12T20:05:02.057Z,2.93
2018-08-12T20:07:31.317Z,3.00
2018-08-12T20:10:02.242Z,3.10
2018-08-12T20:12:32.316Z,3.00
2018-08-12T20:15:43.625Z,3.47
2018-08-12T20:18:13.535Z,3.20
2018-08-12T20:20:43.081Z,3.10
2018-08-12T20:23:13.164Z,3.20
2018-08-12T20:26:07.882Z,3.20
2018-08-12T20:28:38.028Z,3.13
2018-08-12T20:31:08.045Z,3.43
2018-08-12T20:33:37.841Z,3.27
2018-08-12T20:36:07.134Z,3.80
2018-08-12T20:38:36.873Z,3.27
2018-08-12T20:41:06.036Z,3.37
2018-08-12T20:43:35.225Z,3.40
2018-08-12T20:46:04.436Z,3.40
2018-08-12T20:48:34.477Z,3.30
2018-08-12T20:51:03.502Z,3.40
2018-08-12T20:53:43.809Z,3.43
2018-08-12T20:56:12.862Z,3.20
2018-08-12T20:58:41.777Z,3.47
2018-08-12T21:01:11.107Z,3.50
2018-08-12T21:03:39.889Z,3.20
2018-08-12T21:06:08.782Z,3.33
2018-08-12T21:08:37.375Z,3.30
2018-08-12T21:11:06.180Z,3.67
2018-08-12T21:13:34.644Z,3.57
2018-08-12T21:19:28.985Z,3.37
2018-08-12T21:21:57.791Z,3.03
2018-08-12T21:24:26.762Z,3.33
2018-08-12T21:26:55.179Z,3.70
2018-08-12T21:29:23.756Z,3.40
2018-08-12T21:31:52.298Z,3.20
2018-08-12T21:34:21.659Z,3.40
2018-08-12T21:36:50.180Z,3.13
2018-08-12T21:39:18.627Z,3.30
2018-08-12T21:41:47.056Z,3.37
2018-08-12T21:44:15.573Z,3.33
2018-08-12T21:46:44.235Z,3.10
2018-08-12T21:49:12.695Z,3.23
2018-08-12T21:51:41.148Z,3.30
2018-08-12T21:54:09.654Z,3.30
2018-08-12T21:56:38.227Z,3.13
2018-08-12T21:59:06.705Z,2.83
2018-08-12T22:01:35.346Z,3.53
2018-08-12T22:04:03.867Z,3.23
2018-08-12T22:06:32.262Z,2.97
2018-08-12T22:09:00.724Z,3.47
2018-08-12T22:11:30.155Z,3.37
2018-08-12T22:13:58.571Z,3.00
2018-08-12T22:16:26.957Z,3.23
2018-08-12T22:18:55.432Z,3.00
2018-08-12T22:21:23.902Z,2.77
2018-08-12T22:23:53.271Z,3.00
2018-08-12T22:26:22.762Z,3.33
2018-08-12T22:28:56.500Z,2.80
2018-08-12T22:31:24.976Z,3.00
2018-08-12T22:33:53.489Z,3.40
2018-08-12T22:36:22.082Z,3.47
2018-08-12T22:38:50.552Z,3.10
2018-08-12T22:41:19.010Z,3.13
2018-08-12T22:43:47.527Z,3.30
2018-08-12T22:46:15.959Z,3.10
2018-08-12T22:48:44.340Z,3.07
2018-08-12T22:51:12.811Z,2.93
2018-08-12T22:53:41.162Z,2.80
2018-08-12T22:56:09.648Z,3.00
2018-08-12T22:58:38.483Z,3.30
2018-08-12T23:01:08.002Z,3.50
2018-08-12T23:03:36.523Z,3.20
2018-08-12T23:06:05.016Z,3.40
2018-08-12T23:08:33.543Z,3.50
2018-08-12T23:11:01.844Z,2.97
2018-08-12T23:13:30.259Z,2.97
2018-08-12T23:16:13.002Z,3.13
2018-08-12T23:18:41.426Z,3.40
2018-08-12T23:21:11.847Z,3.00
2018-08-12T23:23:41.660Z,3.10
2018-08-12T23:26:11.606Z,3.20
2018-08-12T23:28:40.184Z,3.40
2018-08-12T23:31:09.040Z,3.60
2018-08-12T23:33:38.025Z,3.00
2018-08-12T23:36:06.548Z,3.23
2018-08-12T23:38:35.226Z,3.07
2018-08-12T23:41:03.700Z,3.20
2018-08-12T23:43:32.293Z,3.00
2018-08-12T23:46:00.724Z,3.40
2018-08-12T23:48:29.756Z,3.43
2018-08-12T23:50:58.327Z,3.53
2018-08-12T23:53:26.703Z,3.37
2018-08-12T23:55:55.151Z,3.33
2018-08-12T23:58:23.695Z,3.30
